createdAt,value
2023-02-23T00:00:03.053Z,6.32
2023-02-23T00:00:33.790Z,6.32
2023-02-23T00:01:06.417Z,6.32
2023-02-23T00:01:35.373Z,6.32
2023-02-23T00:02:06.373Z,6.32
2023-02-23T00:02:38.134Z,6.32
2023-02-23T00:03:09.813Z,6.32
2023-02-23T00:03:40.338Z,6.16
2023-02-23T00:04:11.372Z,6.26
2023-02-23T00:04:42.198Z,6.26
2023-02-23T00:05:13.045Z,6.26
2023-02-23T00:05:43.614Z,6.36
2023-02-23T00:06:14.488Z,6.36
2023-02-23T00:06:45.329Z,6.36
2023-02-23T00:07:16.398Z,6.20
2023-02-23T00:07:47.990Z,6.30
2023-02-23T00:08:19.639Z,6.30
2023-02-23T00:08:50.639Z,6.30
2023-02-23T00:09:21.739Z,6.30
2023-02-23T00:09:52.402Z,6.30
2023-02-23T00:10:23.151Z,6.30
2023-02-23T00:11:29.604Z,6.30
2023-02-23T00:11:41.872Z,6.20
2023-02-23T00:11:55.545Z,6.20
2023-02-23T00:12:26.286Z,6.20
2023-02-23T00:12:57.550Z,6.20
2023-02-23T00:13:28.943Z,6.20
2023-02-23T00:14:00.338Z,6.36
2023-02-23T00:14:30.816Z,6.26
2023-02-23T00:15:01.981Z,6.26
2023-02-23T00:15:33.240Z,6.26
2023-02-23T00:16:03.419Z,6.26
2023-02-23T00:16:34.934Z,6.26
2023-02-23T00:17:05.769Z,6.26
2023-02-23T00:17:36.503Z,6.26
2023-02-23T00:18:08.487Z,6.26
2023-02-23T00:18:39.498Z,6.26
2023-02-23T00:19:10.383Z,6.26
2023-02-23T00:19:41.173Z,6.26
2023-02-23T00:20:15.185Z,6.26
2023-02-23T00:20:42.602Z,6.26
2023-02-23T00:21:13.382Z,6.26
2023-02-23T00:21:44.663Z,6.26
2023-02-23T00:22:15.280Z,6.26
2023-02-23T00:22:46.599Z,6.26
2023-02-23T00:23:18.345Z,6.26
2023-02-23T00:23:49.499Z,6.26
2023-02-23T00:24:20.235Z,6.26
2023-02-23T00:24:51.779Z,6.16
2023-02-23T00:25:22.502Z,6.16
2023-02-23T00:25:52.773Z,6.32
2023-02-23T00:26:23.392Z,6.32
2023-02-23T00:26:54.588Z,6.32
2023-02-23T00:27:56.449Z,6.32
2023-02-23T00:28:27.657Z,6.32
2023-02-23T00:28:59.440Z,6.32
2023-02-23T00:29:30.425Z,6.26
2023-02-23T00:30:01.534Z,6.26
2023-02-23T00:30:32.575Z,6.26
2023-02-23T00:31:02.309Z,6.26
2023-02-23T00:31:34.017Z,6.26
2023-02-23T00:32:09.336Z,6.36
2023-02-23T00:32:35.815Z,6.36
2023-02-23T00:33:06.305Z,6.36
2023-02-23T00:33:37.795Z,6.36
2023-02-23T00:34:11.668Z,6.36
2023-02-23T00:34:40.611Z,6.36
2023-02-23T00:35:11.495Z,6.36
2023-02-23T00:35:42.174Z,6.36
2023-02-23T00:36:12.502Z,6.36
2023-02-23T00:36:43.639Z,6.36
2023-02-23T00:37:14.647Z,6.36
2023-02-23T00:38:03.578Z,6.36
2023-02-23T00:38:16.596Z,6.36
2023-02-23T00:38:48.224Z,6.26
2023-02-23T00:39:19.372Z,6.26
2023-02-23T00:39:49.960Z,6.26
2023-02-23T00:40:38.392Z,6.26
2023-02-23T00:40:52.958Z,6.26
2023-02-23T00:41:22.682Z,6.26
2023-02-23T00:41:53.407Z,6.26
2023-02-23T00:42:24.532Z,6.26
2023-02-23T00:42:55.756Z,6.26
2023-02-23T00:43:26.626Z,6.16
2023-02-23T00:43:57.727Z,6.16
2023-02-23T00:44:29.992Z,6.16
2023-02-23T00:45:00.963Z,6.16
2023-02-23T00:45:32.140Z,6.16
2023-02-23T00:46:01.933Z,6.16
2023-02-23T00:46:32.555Z,6.16
2023-02-23T00:47:04.183Z,6.16
2023-02-23T00:47:34.672Z,6.16
2023-02-23T00:48:06.561Z,6.26
2023-02-23T00:48:37.008Z,6.26
2023-02-23T00:49:24.847Z,6.26
2023-02-23T00:49:39.594Z,6.10
2023-02-23T00:50:11.124Z,6.10
2023-02-23T00:50:41.455Z,6.20
2023-02-23T00:51:12.021Z,6.20
2023-02-23T00:51:42.746Z,6.20
2023-02-23T00:52:13.865Z,6.20
2023-02-23T00:52:44.744Z,6.15
2023-02-23T00:53:15.485Z,6.15
2023-02-23T00:53:46.989Z,6.15
2023-02-23T00:54:18.004Z,6.15
2023-02-23T00:54:49.705Z,6.15
2023-02-23T00:55:21.087Z,6.15
2023-02-23T00:55:51.542Z,6.30
2023-02-23T00:56:22.267Z,6.20
2023-02-23T00:56:52.557Z,6.20
2023-02-23T00:57:23.587Z,6.20
2023-02-23T00:57:54.642Z,6.20
2023-02-23T00:58:25.731Z,6.20
2023-02-23T00:58:56.663Z,6.20
2023-02-23T00:59:27.616Z,6.20
2023-02-23T00:59:59.782Z,6.20
2023-02-23T01:00:42.334Z,6.20
2023-02-23T01:01:01.701Z,5.95
2023-02-23T01:01:32.185Z,6.10
2023-02-23T01:02:02.768Z,6.10
2023-02-23T01:03:04.699Z,6.00
2023-02-23T01:03:35.962Z,5.90
2023-02-23T01:04:06.609Z,5.90
2023-02-23T01:04:38.343Z,5.90
2023-02-23T01:05:09.467Z,5.80
2023-02-23T01:05:40.693Z,5.80
2023-02-23T01:06:11.888Z,5.80
2023-02-23T01:06:44.060Z,5.80
2023-02-23T01:07:12.811Z,5.80
2023-02-23T01:07:44.414Z,5.70
2023-02-23T01:08:14.918Z,5.87
2023-02-23T01:09:12.600Z,5.87
2023-02-23T01:09:17.395Z,5.87
2023-02-23T01:09:48.207Z,5.87
2023-02-23T01:10:19.313Z,5.87
2023-02-23T01:10:52.386Z,5.77
2023-02-23T01:11:22.316Z,5.77
2023-02-23T01:11:52.068Z,5.77
2023-02-23T01:12:22.934Z,5.77
2023-02-23T01:12:54.095Z,5.67
2023-02-23T01:13:24.781Z,5.67
2023-02-23T01:14:03.134Z,5.67
2023-02-23T01:14:27.809Z,5.67
2023-02-23T01:14:58.941Z,5.67
2023-02-23T01:15:31.463Z,5.57
2023-02-23T01:16:00.535Z,5.72
2023-02-23T01:16:31.324Z,5.72
2023-02-23T01:17:02.685Z,5.72
2023-02-23T01:17:33.126Z,5.72
2023-02-23T01:18:59.527Z,5.72
2023-02-23T01:19:06.697Z,5.72
2023-02-23T01:19:38.069Z,5.72
2023-02-23T01:20:09.382Z,5.72
2023-02-23T01:20:55.870Z,5.72
2023-02-23T01:21:09.978Z,5.72
2023-02-23T01:21:51.865Z,5.72
2023-02-23T01:22:11.310Z,5.72
2023-02-23T01:22:50.961Z,5.72
2023-02-23T01:23:13.686Z,5.72
2023-02-23T01:23:46.435Z,5.72
2023-02-23T01:24:16.911Z,5.72
2023-02-23T01:24:59.923Z,5.72
2023-02-23T01:25:17.848Z,5.72
2023-02-23T01:25:49.593Z,5.72
2023-02-23T01:26:19.368Z,5.72
2023-02-23T01:26:57.904Z,5.72
2023-02-23T01:27:39.120Z,5.87
2023-02-23T01:27:53.467Z,5.87
2023-02-23T01:28:23.705Z,5.87
2023-02-23T01:28:56.222Z,5.87
2023-02-23T01:29:27.376Z,5.87
2023-02-23T01:29:58.447Z,5.87
2023-02-23T01:30:50.436Z,5.87
2023-02-23T01:30:58.758Z,5.97
2023-02-23T01:31:50.110Z,5.97
2023-02-23T01:32:03.385Z,5.97
2023-02-23T01:32:32.060Z,5.97
2023-02-23T01:33:03.337Z,5.97
2023-02-23T01:33:34.056Z,5.97
2023-02-23T01:35:43.217Z,5.97
2023-02-23T01:36:10.018Z,6.07
2023-02-23T01:36:42.028Z,6.07
2023-02-23T01:37:42.221Z,6.07
2023-02-23T01:38:13.320Z,6.07
2023-02-23T01:38:45.730Z,6.07
2023-02-23T01:39:15.104Z,6.07
2023-02-23T01:40:31.566Z,6.07
2023-02-23T01:40:48.457Z,6.17
2023-02-23T01:41:19.981Z,6.17
2023-02-23T01:41:51.823Z,6.12
2023-02-23T01:42:21.845Z,6.12
2023-02-23T01:43:11.954Z,6.22
2023-02-23T01:43:24.261Z,6.37
2023-02-23T01:43:54.214Z,6.22
2023-02-23T01:44:25.312Z,6.37
2023-02-23T01:44:56.470Z,6.22
2023-02-23T01:45:30.151Z,6.22
2023-02-23T01:45:58.000Z,6.22
2023-02-23T01:46:32.519Z,6.32
2023-02-23T01:47:01.818Z,6.32
2023-02-23T01:47:31.722Z,6.32
2023-02-23T01:49:48.051Z,6.32
2023-02-23T01:50:28.502Z,6.32
2023-02-23T01:50:36.949Z,6.42
2023-02-23T01:51:12.584Z,6.42
2023-02-23T01:51:42.252Z,6.42
2023-02-23T01:52:16.277Z,6.42
2023-02-23T01:53:42.990Z,6.42
2023-02-23T01:54:17.501Z,6.52
2023-02-23T01:54:46.201Z,6.52
2023-02-23T01:55:17.938Z,6.52
2023-02-23T01:55:48.080Z,6.52
2023-02-23T01:56:19.085Z,6.52
2023-02-23T01:56:50.173Z,6.52
2023-02-23T01:57:21.295Z,6.52
2023-02-23T01:57:54.208Z,6.52
2023-02-23T01:58:23.172Z,6.52
2023-02-23T01:58:53.652Z,6.52
2023-02-23T01:59:24.599Z,6.52
2023-02-23T01:59:55.337Z,6.52
2023-02-23T02:00:31.216Z,6.36
2023-02-23T02:01:04.015Z,6.26
2023-02-23T02:01:28.401Z,6.26
2023-02-23T02:02:01.497Z,6.26
2023-02-23T02:02:31.235Z,6.26
2023-02-23T02:04:39.332Z,6.26
2023-02-23T02:04:59.424Z,6.16
2023-02-23T02:05:26.980Z,6.16
2023-02-23T02:05:59.357Z,6.16
2023-02-23T02:06:29.445Z,6.16
2023-02-23T02:07:01.211Z,6.16
2023-02-23T02:07:43.264Z,6.07
2023-02-23T02:08:22.469Z,6.07
2023-02-23T02:08:34.783Z,6.07
2023-02-23T02:09:04.491Z,5.97
2023-02-23T02:09:36.211Z,5.97
2023-02-23T02:10:13.295Z,5.97
2023-02-23T02:12:18.513Z,5.97
2023-02-23T02:12:44.385Z,5.97
2023-02-23T02:13:21.369Z,5.97
2023-02-23T02:14:14.981Z,5.97
2023-02-23T02:14:45.766Z,5.97
2023-02-23T02:15:22.092Z,5.97
2023-02-23T02:15:48.236Z,5.97
2023-02-23T02:16:18.443Z,5.97
2023-02-23T02:16:49.749Z,5.97
2023-02-23T02:17:21.543Z,5.97
2023-02-23T02:17:52.810Z,5.97
2023-02-23T02:18:23.430Z,5.97
2023-02-23T02:18:54.279Z,5.97
2023-02-23T02:19:24.844Z,5.97
2023-02-23T02:19:55.651Z,5.97
2023-02-23T02:20:26.706Z,5.97
2023-02-23T02:20:57.330Z,5.97
2023-02-23T02:21:29.220Z,5.97
2023-02-23T02:21:59.792Z,5.97
2023-02-23T02:22:31.470Z,5.97
2023-02-23T02:23:21.319Z,5.80
2023-02-23T02:23:32.598Z,5.80
2023-02-23T02:24:04.115Z,5.80
2023-02-23T02:24:34.700Z,5.80
2023-02-23T02:25:06.321Z,5.80
2023-02-23T02:25:36.802Z,5.70
2023-02-23T02:26:25.081Z,5.70
2023-02-23T02:26:38.461Z,5.70
2023-02-23T02:27:09.964Z,5.70
2023-02-23T02:27:43.038Z,5.70
2023-02-23T02:28:17.445Z,5.77
2023-02-23T02:28:43.799Z,5.77
2023-02-23T02:29:14.396Z,5.77
2023-02-23T02:29:46.607Z,5.77
2023-02-23T02:30:17.163Z,5.67
2023-02-23T02:30:54.089Z,5.67
2023-02-23T02:31:50.811Z,5.57
2023-02-23T02:34:06.536Z,5.57
2023-02-23T02:34:24.749Z,5.47
2023-02-23T02:34:55.217Z,5.62
2023-02-23T02:35:28.747Z,5.47
2023-02-23T02:36:00.031Z,5.62
2023-02-23T02:36:29.332Z,5.62
2023-02-23T02:36:59.526Z,5.62
2023-02-23T02:37:30.379Z,5.62
2023-02-23T02:38:01.421Z,5.52
2023-02-23T02:38:32.451Z,5.52
2023-02-23T02:42:13.859Z,5.52
2023-02-23T02:42:42.035Z,5.42
2023-02-23T02:43:11.862Z,5.42
2023-02-23T02:43:58.179Z,5.57
2023-02-23T02:44:19.628Z,5.57
2023-02-23T02:44:54.459Z,5.57
2023-02-23T02:45:15.863Z,5.57
2023-02-23T02:45:45.656Z,5.57
2023-02-23T02:46:16.396Z,5.57
2023-02-23T02:46:48.580Z,5.42
2023-02-23T02:47:20.505Z,5.57
2023-02-23T02:47:50.799Z,5.57
2023-02-23T02:48:28.708Z,5.57
2023-02-23T02:48:54.674Z,5.57
2023-02-23T02:49:23.396Z,5.67
2023-02-23T02:49:53.838Z,5.77
2023-02-23T02:50:25.640Z,5.77
2023-02-23T02:50:55.637Z,5.77
2023-02-23T02:51:27.308Z,5.87
2023-02-23T02:51:57.754Z,5.87
2023-02-23T02:52:28.771Z,5.87
2023-02-23T02:53:00.577Z,5.82
2023-02-23T02:53:32.896Z,5.82
2023-02-23T02:54:02.382Z,5.92
2023-02-23T02:54:54.710Z,5.92
2023-02-23T02:55:04.882Z,5.92
2023-02-23T02:55:35.463Z,6.02
2023-02-23T02:56:06.090Z,6.02
2023-02-23T02:56:36.818Z,5.87
2023-02-23T02:57:07.287Z,5.87
2023-02-23T02:57:38.717Z,5.87
2023-02-23T02:58:09.402Z,5.87
2023-02-23T02:58:41.499Z,5.87
2023-02-23T02:59:12.385Z,5.87
2023-02-23T02:59:43.402Z,5.77
2023-02-23T03:00:25.950Z,5.77
2023-02-23T03:01:28.782Z,5.77
2023-02-23T03:02:04.785Z,5.77
2023-02-23T03:02:17.739Z,5.77
2023-02-23T03:03:19.276Z,5.77
2023-02-23T03:04:12.943Z,5.67
2023-02-23T03:05:15.600Z,5.67
2023-02-23T03:05:25.165Z,5.67
2023-02-23T03:05:54.597Z,5.57
2023-02-23T03:06:26.266Z,5.57
2023-02-23T03:06:56.894Z,5.57
2023-02-23T03:07:28.897Z,5.57
2023-02-23T03:07:59.395Z,5.57
2023-02-23T03:08:53.922Z,5.47
2023-02-23T03:09:01.846Z,5.47
2023-02-23T03:09:32.403Z,5.47
2023-02-23T03:10:05.596Z,5.47
2023-02-23T03:10:35.038Z,5.37
2023-02-23T03:11:05.208Z,5.37
2023-02-23T03:11:41.873Z,5.37
2023-02-23T03:12:06.849Z,5.52
2023-02-23T03:12:37.709Z,5.52
2023-02-23T03:13:08.909Z,5.52
2023-02-23T03:13:40.264Z,5.42
2023-02-23T03:14:12.141Z,5.42
2023-02-23T03:14:43.058Z,5.42
2023-02-23T03:15:14.445Z,5.42
2023-02-23T03:15:44.164Z,5.42
2023-02-23T03:16:15.354Z,5.42
2023-02-23T03:16:46.751Z,5.32
2023-02-23T03:17:16.574Z,5.32
2023-02-23T03:17:47.776Z,5.32
2023-02-23T03:18:18.623Z,5.32
2023-02-23T03:18:49.618Z,5.32
2023-02-23T03:19:22.130Z,5.32
2023-02-23T03:19:53.522Z,5.32
2023-02-23T03:20:27.084Z,5.32
2023-02-23T03:20:54.565Z,5.22
2023-02-23T03:21:26.662Z,5.37
2023-02-23T03:21:55.985Z,5.37
2023-02-23T03:22:26.768Z,5.37
2023-02-23T03:23:00.815Z,5.37
2023-02-23T03:23:29.255Z,5.37
2023-02-23T03:24:01.792Z,5.37
2023-02-23T03:24:31.260Z,5.37
2023-02-23T03:25:03.531Z,5.37
2023-02-23T03:25:33.943Z,5.37
2023-02-23T03:26:04.956Z,5.37
2023-02-23T03:26:34.912Z,5.37
2023-02-23T03:27:06.073Z,5.37
2023-02-23T03:27:36.512Z,5.37
2023-02-23T03:28:08.806Z,5.37
2023-02-23T03:28:38.863Z,5.27
2023-02-23T03:29:10.255Z,5.27
2023-02-23T03:29:41.513Z,5.27
2023-02-23T03:30:12.905Z,5.27
2023-02-23T03:30:53.261Z,5.27
2023-02-23T03:31:14.813Z,5.27
2023-02-23T03:31:45.683Z,5.27
2023-02-23T03:32:16.736Z,5.27
2023-02-23T03:32:46.429Z,5.27
2023-02-23T03:33:35.823Z,5.17
2023-02-23T03:33:48.732Z,5.17
2023-02-23T03:34:19.257Z,5.17
2023-02-23T03:34:51.425Z,5.17
2023-02-23T03:35:23.317Z,5.17
2023-02-23T03:35:53.059Z,5.17
2023-02-23T03:36:58.018Z,5.17
2023-02-23T03:37:25.905Z,5.31
2023-02-23T03:37:56.309Z,5.31
2023-02-23T03:38:27.738Z,5.31
2023-02-23T03:38:58.678Z,5.31
2023-02-23T03:39:29.296Z,5.31
2023-02-23T03:40:01.238Z,5.31
2023-02-23T03:40:32.508Z,5.31
2023-02-23T03:41:03.663Z,5.31
2023-02-23T03:41:33.775Z,5.31
2023-02-23T03:42:04.939Z,5.31
2023-02-23T03:42:36.306Z,5.31
2023-02-23T03:43:06.629Z,5.31
2023-02-23T03:43:38.036Z,5.31
2023-02-23T03:44:08.616Z,5.31
2023-02-23T03:44:39.373Z,5.31
2023-02-23T03:45:11.699Z,5.31
2023-02-23T03:45:42.830Z,5.31
2023-02-23T03:46:13.246Z,5.31
2023-02-23T03:46:43.930Z,5.31
2023-02-23T03:47:15.169Z,5.31
2023-02-23T03:47:45.615Z,5.31
2023-02-23T03:48:16.897Z,5.31
2023-02-23T03:48:47.611Z,5.41
2023-02-23T03:49:18.366Z,5.41
2023-02-23T03:49:49.605Z,5.41
2023-02-23T03:50:26.480Z,5.41
2023-02-23T03:50:53.228Z,5.41
2023-02-23T03:51:23.362Z,5.41
2023-02-23T03:51:54.024Z,5.41
2023-02-23T03:52:25.100Z,5.41
2023-02-23T03:52:55.830Z,5.41
2023-02-23T03:53:26.920Z,5.41
2023-02-23T03:54:15.431Z,5.41
2023-02-23T03:54:28.330Z,5.41
2023-02-23T03:54:59.771Z,5.41
2023-02-23T03:55:55.884Z,5.31
2023-02-23T03:56:02.528Z,5.31
2023-02-23T03:56:51.684Z,5.31
2023-02-23T03:57:04.507Z,5.31
2023-02-23T03:57:36.273Z,5.41
2023-02-23T03:58:06.166Z,5.41
2023-02-23T03:58:36.686Z,5.41
2023-02-23T03:59:07.808Z,5.41
2023-02-23T03:59:38.626Z,5.41
2023-02-23T04:00:10.756Z,5.41
2023-02-23T04:00:41.088Z,5.41
2023-02-23T04:01:12.829Z,5.41
2023-02-23T04:02:15.901Z,5.51
2023-02-23T04:02:45.274Z,5.51
2023-02-23T04:03:16.304Z,5.51
2023-02-23T04:03:46.809Z,5.51
2023-02-23T04:04:17.839Z,5.41
2023-02-23T04:04:48.791Z,5.41
2023-02-23T04:05:20.055Z,5.41
2023-02-23T04:05:51.286Z,5.41
2023-02-23T04:06:23.064Z,5.41
2023-02-23T04:06:53.542Z,5.41
2023-02-23T04:07:24.700Z,5.41
2023-02-23T04:08:26.001Z,5.41
2023-02-23T04:08:56.502Z,5.31
2023-02-23T04:09:27.678Z,5.31
2023-02-23T04:09:58.560Z,5.31
2023-02-23T04:10:31.169Z,5.41
2023-02-23T04:11:01.348Z,5.41
2023-02-23T04:11:32.630Z,5.41
2023-02-23T04:12:03.745Z,5.41
2023-02-23T04:12:34.353Z,5.41
2023-02-23T04:13:05.014Z,5.41
2023-02-23T04:13:35.965Z,5.41
2023-02-23T04:14:06.784Z,5.41
2023-02-23T04:14:37.670Z,5.41
2023-02-23T04:15:08.767Z,5.41
2023-02-23T04:15:39.599Z,5.41
2023-02-23T04:16:11.394Z,5.41
2023-02-23T04:16:58.990Z,5.41
2023-02-23T04:17:13.258Z,5.41
2023-02-23T04:17:44.723Z,5.41
2023-02-23T04:18:15.600Z,5.41
2023-02-23T04:18:45.816Z,5.41
2023-02-23T04:19:16.569Z,5.41
2023-02-23T04:19:47.699Z,5.41
2023-02-23T04:20:19.197Z,5.41
2023-02-23T04:20:49.713Z,5.41
2023-02-23T04:21:21.293Z,5.41
2023-02-23T04:21:52.326Z,5.41
2023-02-23T04:22:23.908Z,5.41
2023-02-23T04:22:54.498Z,5.41
2023-02-23T04:23:25.701Z,5.41
2023-02-23T04:23:56.493Z,5.41
2023-02-23T04:24:27.265Z,5.41
2023-02-23T04:24:58.560Z,5.31
2023-02-23T04:25:46.868Z,5.31
2023-02-23T04:26:02.789Z,5.31
2023-02-23T04:26:31.477Z,5.31
2023-02-23T04:27:02.890Z,5.31
2023-02-23T04:27:33.980Z,5.31
2023-02-23T04:28:05.043Z,5.21
2023-02-23T04:28:35.037Z,5.21
2023-02-23T04:29:06.539Z,5.21
2023-02-23T04:29:36.805Z,5.21
2023-02-23T04:30:09.173Z,5.21
2023-02-23T04:30:39.414Z,5.31
2023-02-23T04:31:09.325Z,5.31
2023-02-23T04:31:41.301Z,5.31
2023-02-23T04:32:11.911Z,5.31
2023-02-23T04:32:44.754Z,5.31
2023-02-23T04:33:14.748Z,5.31
2023-02-23T04:34:02.571Z,5.41
2023-02-23T04:34:15.856Z,5.41
2023-02-23T04:34:47.101Z,5.41
2023-02-23T04:35:18.094Z,5.41
2023-02-23T04:35:48.727Z,5.41
2023-02-23T04:36:19.521Z,5.51
2023-02-23T04:36:50.876Z,5.51
2023-02-23T04:37:21.625Z,5.51
2023-02-23T04:37:53.607Z,5.51
2023-02-23T04:38:24.827Z,5.51
2023-02-23T04:38:55.494Z,5.51
2023-02-23T04:39:26.016Z,5.51
2023-02-23T04:39:56.858Z,5.51
2023-02-23T04:40:27.669Z,5.51
2023-02-23T04:40:58.396Z,5.51
2023-02-23T04:41:29.514Z,5.61
2023-02-23T04:42:01.127Z,5.71
2023-02-23T04:42:32.096Z,5.71
2023-02-23T04:43:03.232Z,5.71
2023-02-23T04:43:51.169Z,5.57
2023-02-23T04:44:05.641Z,5.57
2023-02-23T04:44:36.033Z,5.57
2023-02-23T04:45:08.375Z,5.67
2023-02-23T04:45:37.536Z,5.67
2023-02-23T04:46:08.847Z,5.67
2023-02-23T04:46:39.466Z,5.67
2023-02-23T04:47:11.013Z,5.67
2023-02-23T04:47:41.665Z,5.67
2023-02-23T04:48:13.713Z,5.67
2023-02-23T04:48:45.317Z,5.57
2023-02-23T04:49:16.279Z,5.57
2023-02-23T04:49:46.598Z,5.57
2023-02-23T04:50:18.008Z,5.57
2023-02-23T04:50:47.840Z,5.57
2023-02-23T04:51:19.075Z,5.57
2023-02-23T04:51:49.787Z,5.57
2023-02-23T04:52:37.998Z,5.57
2023-02-23T04:52:51.909Z,5.57
2023-02-23T04:53:23.042Z,5.57
2023-02-23T04:53:54.882Z,5.57
2023-02-23T04:54:25.924Z,5.57
2023-02-23T04:54:56.591Z,5.57
2023-02-23T04:55:26.961Z,5.57
2023-02-23T04:55:57.624Z,5.57
2023-02-23T04:56:29.597Z,5.57
2023-02-23T04:57:01.605Z,5.47
2023-02-23T04:57:31.260Z,5.47
2023-02-23T04:58:03.912Z,5.47
2023-02-23T04:58:33.384Z,5.47
2023-02-23T04:59:04.774Z,5.47
2023-02-23T04:59:36.040Z,5.47
2023-02-23T05:01:10.697Z,5.47
2023-02-23T05:01:38.683Z,5.57
2023-02-23T05:02:09.749Z,5.57
2023-02-23T05:02:41.145Z,5.67
2023-02-23T05:03:11.896Z,5.67
2023-02-23T05:03:43.443Z,5.67
2023-02-23T05:04:14.450Z,5.67
2023-02-23T05:04:44.947Z,5.77
2023-02-23T05:05:15.596Z,5.77
2023-02-23T05:05:46.912Z,5.77
2023-02-23T05:06:18.867Z,5.77
2023-02-23T05:06:50.605Z,5.77
2023-02-23T05:07:21.045Z,5.77
2023-02-23T05:08:22.037Z,5.77
2023-02-23T05:08:53.090Z,5.77
2023-02-23T05:09:23.806Z,5.62
2023-02-23T05:09:55.050Z,5.62
2023-02-23T05:10:42.998Z,5.62
2023-02-23T05:10:57.330Z,5.62
2023-02-23T05:11:28.735Z,5.62
2023-02-23T05:11:59.126Z,5.62
2023-02-23T05:13:01.429Z,5.62
2023-02-23T05:13:33.520Z,5.62
2023-02-23T05:14:03.217Z,5.52
2023-02-23T05:14:33.865Z,5.67
2023-02-23T05:15:05.817Z,5.52
2023-02-23T05:15:36.060Z,5.52
2023-02-23T05:16:07.852Z,5.62
2023-02-23T05:16:39.086Z,5.62
2023-02-23T05:17:09.758Z,5.62
2023-02-23T05:17:40.023Z,5.77
2023-02-23T05:18:11.077Z,5.77
2023-02-23T05:18:41.815Z,5.77
2023-02-23T05:19:30.460Z,5.77
2023-02-23T05:20:22.009Z,5.77
2023-02-23T05:20:45.941Z,5.77
2023-02-23T05:21:18.160Z,5.77
2023-02-23T05:21:48.666Z,5.77
2023-02-23T05:22:20.163Z,5.77
2023-02-23T05:22:51.484Z,5.77
2023-02-23T05:23:21.623Z,5.77
2023-02-23T05:23:52.042Z,5.77
2023-02-23T05:24:22.787Z,5.77
2023-02-23T05:24:55.840Z,5.77
2023-02-23T05:25:24.818Z,5.77
2023-02-23T05:25:56.040Z,5.77
2023-02-23T05:26:27.027Z,5.87
2023-02-23T05:27:00.869Z,5.87
2023-02-23T05:27:30.415Z,5.87
2023-02-23T05:28:00.196Z,5.72
2023-02-23T05:28:31.176Z,5.72
2023-02-23T05:29:01.949Z,5.72
2023-02-23T05:29:32.937Z,5.62
2023-02-23T05:30:04.754Z,5.62
2023-02-23T05:30:35.428Z,5.77
2023-02-23T05:31:09.964Z,5.67
2023-02-23T05:31:38.010Z,5.67
2023-02-23T05:32:10.438Z,5.67
2023-02-23T05:32:40.343Z,5.67
2023-02-23T05:33:10.582Z,5.67
2023-02-23T05:33:41.541Z,5.67
2023-02-23T05:34:12.646Z,5.67
2023-02-23T05:34:42.743Z,5.67
2023-02-23T05:35:14.453Z,5.67
2023-02-23T05:35:44.895Z,5.67
2023-02-23T05:36:15.839Z,5.67
2023-02-23T05:36:47.472Z,5.67
2023-02-23T05:37:18.905Z,5.67
2023-02-23T05:37:49.325Z,5.67
2023-02-23T05:38:20.999Z,5.67
2023-02-23T05:38:51.259Z,5.67
2023-02-23T05:39:22.385Z,5.67
2023-02-23T05:39:52.947Z,5.67
2023-02-23T05:40:24.321Z,5.67
2023-02-23T05:40:54.652Z,5.67
2023-02-23T05:41:26.012Z,5.67
2023-02-23T05:41:58.071Z,5.67
2023-02-23T05:42:28.870Z,5.77
2023-02-23T05:42:59.933Z,5.77
2023-02-23T05:43:31.127Z,5.77
2023-02-23T05:44:01.704Z,5.77
2023-02-23T05:44:38.986Z,5.77
2023-02-23T05:45:04.191Z,5.77
2023-02-23T05:45:34.225Z,5.77
2023-02-23T05:46:05.217Z,5.77
2023-02-23T05:46:35.859Z,5.77
2023-02-23T05:47:07.741Z,5.62
2023-02-23T05:47:38.772Z,5.62
2023-02-23T05:48:10.592Z,5.77
2023-02-23T05:48:41.393Z,5.77
2023-02-23T05:49:12.762Z,5.77
2023-02-23T05:49:42.535Z,5.77
2023-02-23T05:50:13.720Z,5.77
2023-02-23T05:50:44.058Z,5.77
2023-02-23T05:51:14.941Z,5.77
2023-02-23T05:51:45.835Z,5.77
2023-02-23T05:52:17.550Z,5.72
2023-02-23T05:54:33.921Z,5.72
2023-02-23T05:54:52.737Z,5.62
2023-02-23T05:55:23.729Z,5.62
2023-02-23T05:55:54.955Z,5.62
2023-02-23T05:56:25.359Z,5.72
2023-02-23T05:56:56.436Z,5.72
2023-02-23T05:57:27.121Z,5.72
2023-02-23T05:58:00.544Z,5.72
2023-02-23T05:58:29.802Z,5.72
2023-02-23T05:59:00.643Z,5.62
2023-02-23T05:59:32.367Z,5.62
2023-02-23T06:00:03.283Z,5.62
2023-02-23T06:07:25.209Z,5.62
2023-02-23T06:07:53.223Z,5.42
2023-02-23T06:08:50.392Z,5.32
2023-02-23T06:09:44.130Z,5.32
2023-02-23T06:09:50.935Z,5.32
2023-02-23T06:10:50.224Z,5.32
2023-02-23T06:10:53.658Z,5.22
2023-02-23T06:11:24.714Z,5.37
2023-02-23T06:11:55.978Z,5.37
2023-02-23T06:12:28.182Z,5.37
2023-02-23T06:13:27.372Z,5.37
2023-02-23T06:13:58.955Z,5.27
2023-02-23T06:14:29.903Z,5.27
2023-02-23T06:15:02.395Z,5.27
2023-02-23T06:15:31.899Z,5.27
2023-02-23T06:16:03.655Z,5.27
2023-02-23T06:16:35.425Z,5.27
2023-02-23T06:17:05.950Z,5.27
2023-02-23T06:17:43.442Z,5.41
2023-02-23T06:18:24.760Z,5.41
2023-02-23T06:20:17.510Z,5.41
2023-02-23T06:21:25.139Z,5.41
2023-02-23T06:22:42.776Z,5.41
2023-02-23T06:22:47.600Z,5.41
2023-02-23T06:23:18.282Z,5.41
2023-02-23T06:23:49.080Z,5.41
2023-02-23T06:24:23.642Z,5.41
2023-02-23T06:24:50.184Z,5.56
2023-02-23T06:25:21.364Z,5.56
2023-02-23T06:25:52.399Z,5.56
2023-02-23T06:26:23.916Z,5.56
2023-02-23T06:26:59.419Z,5.56
2023-02-23T06:27:51.061Z,5.66
2023-02-23T06:28:27.837Z,5.66
2023-02-23T06:28:58.120Z,5.66
2023-02-23T06:29:28.972Z,5.66
2023-02-23T06:31:14.841Z,5.66
2023-02-23T06:31:36.535Z,5.76
2023-02-23T06:32:05.399Z,5.86
2023-02-23T06:32:36.548Z,5.86
2023-02-23T06:33:06.858Z,5.86
2023-02-23T06:33:37.331Z,5.86
2023-02-23T06:34:08.759Z,5.86
2023-02-23T06:34:39.300Z,5.86
2023-02-23T06:35:11.205Z,5.86
2023-02-23T06:35:41.462Z,5.86
2023-02-23T06:36:12.975Z,5.86
2023-02-23T06:36:44.097Z,5.86
2023-02-23T06:37:15.979Z,5.86
2023-02-23T06:38:22.457Z,5.86
2023-02-23T06:38:54.362Z,5.86
2023-02-23T06:39:33.024Z,5.96
2023-02-23T06:40:26.494Z,5.96
2023-02-23T06:40:56.475Z,5.96
2023-02-23T06:41:22.454Z,5.96
2023-02-23T06:41:53.524Z,5.96
2023-02-23T06:42:24.931Z,5.96
2023-02-23T06:42:56.145Z,5.96
2023-02-23T06:46:15.133Z,5.96
2023-02-23T06:47:04.080Z,5.96
2023-02-23T06:47:35.650Z,5.96
2023-02-23T06:48:06.458Z,5.96
2023-02-23T06:48:36.668Z,5.96
2023-02-23T06:49:07.273Z,5.96
2023-02-23T06:49:44.694Z,6.06
2023-02-23T06:50:10.515Z,6.06
2023-02-23T06:50:40.999Z,6.06
2023-02-23T06:51:47.423Z,6.06
2023-02-23T06:52:07.510Z,6.06
2023-02-23T06:52:14.480Z,6.06
2023-02-23T06:52:45.274Z,6.06
2023-02-23T06:53:15.870Z,6.06
2023-02-23T06:53:47.857Z,6.16
2023-02-23T06:54:17.380Z,6.16
2023-02-23T06:54:49.089Z,6.16
2023-02-23T06:55:19.258Z,6.16
2023-02-23T06:55:50.836Z,6.16
2023-02-23T06:56:22.436Z,6.16
2023-02-23T06:56:53.176Z,6.16
2023-02-23T06:57:24.987Z,6.16
2023-02-23T06:57:55.443Z,6.16
2023-02-23T06:58:26.010Z,6.16
2023-02-23T06:58:56.549Z,6.16
2023-02-23T06:59:27.441Z,6.16
2023-02-23T06:59:58.701Z,6.16
2023-02-23T07:00:52.878Z,6.16
2023-02-23T07:01:00.751Z,6.26
2023-02-23T07:01:31.735Z,6.26
2023-02-23T07:02:03.350Z,6.26
2023-02-23T07:03:45.966Z,6.26
2023-02-23T07:04:10.816Z,6.26
2023-02-23T07:04:55.008Z,6.26
2023-02-23T07:05:08.599Z,6.26
2023-02-23T07:05:49.313Z,6.26
2023-02-23T07:06:10.729Z,6.36
2023-02-23T07:06:43.035Z,6.36
2023-02-23T07:07:17.863Z,6.36
2023-02-23T07:07:44.846Z,6.36
2023-02-23T07:08:15.812Z,6.36
2023-02-23T07:09:20.095Z,6.36
2023-02-23T07:09:51.958Z,6.36
2023-02-23T07:10:19.934Z,6.46
2023-02-23T07:10:49.715Z,6.46
2023-02-23T07:11:21.254Z,6.46
2023-02-23T07:11:52.543Z,6.46
2023-02-23T07:12:23.788Z,6.46
2023-02-23T07:12:54.755Z,6.46
2023-02-23T07:13:25.901Z,6.46
2023-02-23T07:13:55.927Z,6.56
2023-02-23T07:14:27.327Z,6.56
2023-02-23T07:14:57.587Z,6.56
2023-02-23T07:15:28.581Z,6.56
2023-02-23T07:15:59.594Z,6.56
2023-02-23T07:16:30.967Z,6.56
2023-02-23T07:17:02.015Z,6.56
2023-02-23T07:17:33.625Z,6.56
2023-02-23T07:18:04.911Z,6.66
2023-02-23T07:18:36.073Z,6.66
2023-02-23T07:19:06.359Z,6.66
2023-02-23T07:19:36.904Z,6.66
2023-02-23T07:20:08.734Z,6.66
2023-02-23T07:20:38.218Z,6.66
2023-02-23T07:21:09.883Z,6.66
2023-02-23T07:21:40.976Z,6.66
2023-02-23T07:22:11.757Z,6.66
2023-02-23T07:22:43.676Z,6.76
2023-02-23T07:23:14.514Z,6.76
2023-02-23T07:23:45.431Z,6.76
2023-02-23T07:24:16.546Z,6.76
2023-02-23T07:24:46.848Z,6.76
2023-02-23T07:25:18.154Z,6.76
2023-02-23T07:25:48.457Z,6.76
2023-02-23T07:26:19.114Z,6.76
2023-02-23T07:27:25.980Z,6.76
2023-02-23T07:27:28.471Z,6.86
2023-02-23T07:27:52.902Z,6.86
2023-02-23T07:28:24.784Z,6.86
2023-02-23T07:28:55.587Z,6.86
2023-02-23T07:29:26.328Z,6.86
2023-02-23T07:29:56.872Z,6.86
2023-02-23T07:30:29.039Z,6.96
2023-02-23T07:31:16.895Z,6.96
2023-02-23T07:32:01.004Z,6.96
2023-02-23T07:32:32.350Z,6.96
2023-02-23T07:33:03.517Z,6.96